Time;durP1;ratioP1;P1;durP2;ratioP2;P2;SDS_P1;SDS_P2;PMS_P1;PMS_P2;Temp;Humidity;BMP_temperature;BMP_pressure;BME280_temperature;BME280_humidity;BME280_pressure;Samples;Min_cycle;Max_cycle;Signal;HPM_P1;HPM_P2
2022/10/21 00:00:30;;;;;;;20.20;13.15;;;;;;;12.11;100.00;100874.38;6220317;23;20044;-79
2022/10/21 00:02:57;;;;;;;20.90;13.68;;;;;;;12.12;100.00;100865.19;6219421;23;20469;-79
2022/10/21 00:05:23;;;;;;;16.58;13.48;;;;;;;12.14;100.00;100868.91;6220389;23;20458;-78
2022/10/21 00:07:49;;;;;;;26.85;12.32;;;;;;;12.16;100.00;100865.78;6220296;23;20085;-78
2022/10/21 00:10:16;;;;;;;21.48;13.35;;;;;;;12.19;100.00;100868.31;6218928;23;20088;-78
2022/10/21 00:12:42;;;;;;;22.02;14.25;;;;;;;12.21;100.00;100867.84;6220285;23;20020;-78
2022/10/21 00:15:09;;;;;;;22.73;14.25;;;;;;;12.22;100.00;100864.00;6219480;23;20100;-78
2022/10/21 00:17:38;;;;;;;16.95;13.35;;;;;;;12.23;100.00;100868.16;6220527;23;20088;-79
2022/10/21 00:20:07;;;;;;;20.67;13.73;;;;;;;12.24;100.00;100864.31;6219872;23;20117;-78
2022/10/21 00:22:33;;;;;;;19.88;13.65;;;;;;;12.27;100.00;100882.09;6220520;23;20451;-79
2022/10/21 00:25:00;;;;;;;24.27;13.52;;;;;;;12.29;100.00;100895.72;6193046;23;20080;-79
2022/10/21 00:27:27;;;;;;;24.88;13.57;;;;;;;12.29;100.00;100888.47;6220338;23;20116;-79
2022/10/21 00:29:53;;;;;;;20.45;14.32;;;;;;;12.30;100.00;100881.19;6192450;23;20459;-78
2022/10/21 00:32:20;;;;;;;15.52;12.73;;;;;;;12.30;100.00;100889.94;6220278;23;20092;-78
2022/10/21 00:34:47;;;;;;;22.23;14.05;;;;;;;12.31;100.00;100888.75;6220414;23;20013;-78
2022/10/21 00:37:14;;;;;;;22.17;14.20;;;;;;;12.32;100.00;100889.50;6219967;23;20104;-79
2022/10/21 00:39:40;;;;;;;19.17;13.93;;;;;;;12.32;100.00;100878.81;6193358;23;20056;-78
2022/10/21 00:42:14;;;;;;;21.10;13.40;;;;;;;12.37;100.00;100875.56;6193616;23;20017;-79
2022/10/21 00:44:40;;;;;;;30.10;14.52;;;;;;;12.40;100.00;100865.88;6219322;23;20085;-79
2022/10/21 00:47:14;;;;;;;16.98;13.32;;;;;;;12.46;100.00;100866.75;6219530;23;20093;-78
2022/10/21 00:49:53;;;;;;;23.25;13.35;;;;;;;12.51;100.00;100847.47;6220018;23;20028;-78
2022/10/21 00:52:22;;;;;;;16.58;12.70;;;;;;;12.53;100.00;100853.09;6217897;23;20427;-79
2022/10/21 00:54:53;;;;;;;17.38;12.27;;;;;;;12.55;100.00;100843.47;6219490;23;20088;-79
2022/10/21 00:57:22;;;;;;;21.48;12.88;;;;;;;12.59;100.00;100852.06;6217614;23;20033;-78
2022/10/21 00:59:57;;;;;;;16.88;12.15;;;;;;;12.61;100.00;100849.69;6218237;23;20028;-78
2022/10/21 01:02:23;;;;;;;15.98;11.70;;;;;;;12.62;100.00;100858.44;6219835;23;20024;-78
2022/10/21 01:04:52;;;;;;;16.85;11.90;;;;;;;12.65;100.00;100839.56;6219797;23;20096;-78
2022/10/21 01:07:19;;;;;;;14.25;11.57;;;;;;;12.71;100.00;100839.69;6220001;23;20096;-78
2022/10/21 01:09:45;;;;;;;15.23;11.48;;;;;;;12.73;100.00;100839.25;6219818;23;20097;-78
2022/10/21 01:12:42;;;;;;;17.98;12.38;;;;;;;12.75;100.00;100844.88;6219740;23;20025;-78
2022/10/21 01:15:28;;;;;;;18.98;11.75;;;;;;;12.76;100.00;100828.41;6192520;23;20092;-78
2022/10/21 01:18:02;;;;;;;17.30;11.20;;;;;;;12.79;100.00;100834.78;6219437;23;20052;-78
2022/10/21 01:20:37;;;;;;;18.58;10.85;;;;;;;12.81;100.00;100827.75;6219373;23;20079;-79
2022/10/21 01:23:25;;;;;;;15.40;11.45;;;;;;;12.85;100.00;100831.00;6220670;23;20020;-79
2022/10/21 01:26:01;;;;;;;15.52;11.50;;;;;;;12.86;100.00;100829.09;6220712;23;20092;-79
2022/10/21 01:28:39;;;;;;;17.40;12.48;;;;;;;12.87;100.00;100830.56;6220215;23;20096;-79
2022/10/21 01:31:20;;;;;;;16.38;12.23;;;;;;;12.87;100.00;100831.31;6220575;23;20052;-79
2022/10/21 01:34:03;;;;;;;16.40;12.37;;;;;;;12.86;100.00;100818.41;6221224;23;20020;-80
2022/10/21 01:36:55;;;;;;;15.57;11.82;;;;;;;12.84;100.00;100818.84;6221078;23;20047;-79
2022/10/21 01:39:28;;;;;;;21.63;11.88;;;;;;;12.82;100.00;100823.16;6221054;23;20436;-80
2022/10/21 01:42:24;;;;;;;20.85;12.00;;;;;;;12.80;100.00;100814.88;6220629;23;20056;-79
2022/10/21 01:45:01;;;;;;;15.40;12.05;;;;;;;12.77;100.00;100816.53;6220667;23;20399;-79
2022/10/21 01:47:32;;;;;;;20.38;11.95;;;;;;;12.74;100.00;100812.09;6221204;23;20510;-80
2022/10/21 01:50:09;;;;;;;23.70;12.35;;;;;;;12.75;100.00;100796.81;6220680;23;20096;-80
2022/10/21 01:52:40;;;;;;;22.40;12.85;;;;;;;12.74;100.00;100803.34;6221105;23;20438;-79
2022/10/21 01:55:13;;;;;;;20.88;12.77;;;;;;;12.71;100.00;100802.31;6220459;23;20017;-79
2022/10/21 01:57:45;;;;;;;20.55;12.27;;;;;;;12.70;100.00;100808.84;6220396;23;20044;-79
2022/10/21 02:00:12;;;;;;;26.38;12.98;;;;;;;12.68;100.00;100795.19;6220683;23;20035;-79
2022/10/21 02:02:44;;;;;;;15.80;13.00;;;;;;;12.68;100.00;100792.53;6220844;23;20056;-79
2022/10/21 02:05:26;;;;;;;18.75;13.65;;;;;;;12.68;100.00;100787.94;6220532;23;20039;-79
2022/10/21 02:07:53;;;;;;;18.85;13.48;;;;;;;12.68;100.00;100793.28;6220770;23;20097;-79
2022/10/21 02:10:21;;;;;;;24.70;13.80;;;;;;;12.66;100.00;100787.63;6220925;23;20089;-79
2022/10/21 02:12:50;;;;;;;23.25;14.23;;;;;;;12.66;100.00;100787.63;6220335;23;20092;-79
2022/10/21 02:15:18;;;;;;;15.85;14.15;;;;;;;12.62;100.00;100784.38;6220617;23;20076;-78
2022/10/21 02:17:52;;;;;;;18.65;13.15;;;;;;;12.61;100.00;100779.50;6221080;23;20051;-79
2022/10/21 02:20:23;;;;;;;17.13;12.57;;;;;;;12.57;100.00;100770.91;6220744;23;20017;-79
2022/10/21 02:22:49;;;;;;;21.77;13.45;;;;;;;12.54;100.00;100766.47;6221187;23;20025;-79
2022/10/21 02:25:27;;;;;;;22.83;12.85;;;;;;;12.49;100.00;100762.47;6220450;23;20092;-79
2022/10/21 02:27:54;;;;;;;17.95;12.82;;;;;;;12.46;100.00;100758.03;6219952;23;20013;-79
2022/10/21 02:30:21;;;;;;;16.42;12.85;;;;;;;12.43;100.00;100755.53;6220832;23;20013;-79
2022/10/21 02:32:54;;;;;;;21.10;13.43;;;;;;;12.41;100.00;100755.97;6220164;23;20021;-79
2022/10/21 02:35:38;;;;;;;18.98;13.55;;;;;;;12.41;100.00;100749.91;6220926;23;20048;-79
2022/10/21 02:38:13;;;;;;;22.65;13.38;;;;;;;12.37;100.00;100750.09;6193339;23;20018;-78
2022/10/21 02:40:46;;;;;;;22.15;13.50;;;;;;;12.35;100.00;100749.81;6219989;23;20462;-79
2022/10/21 02:43:17;;;;;;;15.93;12.85;;;;;;;12.32;100.00;100748.03;6220303;23;20020;-79
2022/10/21 02:45:46;;;;;;;26.88;13.93;;;;;;;12.30;100.00;100739.72;6220378;23;20019;-79
2022/10/21 02:48:12;;;;;;;15.50;12.52;;;;;;;12.27;100.00;100735.28;6220333;23;20024;-79
2022/10/21 02:50:39;;;;;;;23.65;12.82;;;;;;;12.22;100.00;100744.66;6220685;23;20017;-79
2022/10/21 02:53:08;;;;;;;26.33;13.13;;;;;;;12.18;100.00;100746.72;6220437;23;20465;-79
2022/10/21 02:55:34;;;;;;;18.08;12.68;;;;;;;12.16;100.00;100746.44;6220106;23;20019;-79
2022/10/21 02:58:01;;;;;;;17.02;12.93;;;;;;;12.15;100.00;100752.22;6220325;23;20088;-78
2022/10/21 03:00:27;;;;;;;15.40;12.02;;;;;;;12.12;100.00;100751.19;6193771;23;20075;-79
2022/10/21 03:02:58;;;;;;;19.48;12.38;;;;;;;12.10;100.00;100745.56;6194995;23;20017;-79
2022/10/21 03:05:25;;;;;;;19.88;12.52;;;;;;;12.06;100.00;100747.66;6220538;23;20017;-79
2022/10/21 03:07:51;;;;;;;17.00;11.77;;;;;;;12.02;100.00;100745.13;6193490;23;20462;-79
2022/10/21 03:10:17;;;;;;;17.60;12.48;;;;;;;12.03;100.00;100740.53;6220049;23;20076;-79
2022/10/21 03:12:44;;;;;;;18.73;12.07;;;;;;;12.03;100.00;100740.53;6220637;23;20022;-80
2022/10/21 03:15:10;;;;;;;21.65;11.85;;;;;;;11.99;100.00;100740.72;6220262;23;20089;-79
2022/10/21 03:17:37;;;;;;;14.93;11.75;;;;;;;11.97;100.00;100737.75;6220625;23;20495;-80
2022/10/21 03:20:04;;;;;;;18.27;12.55;;;;;;;11.97;100.00;100750.38;6220106;23;20530;-80
2022/10/21 03:22:32;;;;;;;17.55;12.52;;;;;;;11.92;100.00;100746.38;6220885;23;20093;-79
2022/10/21 03:24:58;;;;;;;14.55;11.60;;;;;;;11.92;100.00;100746.38;6219849;23;20099;-79
2022/10/21 03:27:25;;;;;;;18.50;12.70;;;;;;;11.90;100.00;100756.75;6220615;23;20358;-78
2022/10/21 03:29:52;;;;;;;22.55;12.75;;;;;;;11.87;100.00;100754.97;6220305;23;20096;-78
2022/10/21 03:32:18;;;;;;;21.02;13.02;;;;;;;11.86;100.00;100753.50;6220644;23;20088;-79
2022/10/21 03:34:45;;;;;;;22.85;12.63;;;;;;;11.86;100.00;100747.41;6220418;23;20088;-79
2022/10/21 03:37:11;;;;;;;22.48;12.80;;;;;;;11.83;100.00;100748.31;6220330;23;20469;-79
2022/10/21 03:39:37;;;;;;;20.17;13.13;;;;;;;11.80;100.00;100751.88;6220075;23;20084;-79
2022/10/21 03:42:04;;;;;;;15.55;13.25;;;;;;;11.80;100.00;100751.88;6219981;23;20021;-79
2022/10/21 03:44:30;;;;;;;18.00;12.85;;;;;;;11.78;100.00;100743.56;6219910;23;20020;-79
2022/10/21 03:46:57;;;;;;;16.35;13.60;;;;;;;11.80;100.00;100741.94;6220116;23;20081;-79
2022/10/21 03:49:23;;;;;;;16.23;13.10;;;;;;;11.79;100.00;100737.03;6220505;23;20485;-79
2022/10/21 03:51:50;;;;;;;18.70;12.45;;;;;;;11.75;100.00;100731.09;6220488;23;20043;-79
2022/10/21 03:54:17;;;;;;;18.67;12.93;;;;;;;11.70;100.00;100717.19;6219947;23;20092;-78
2022/10/21 03:56:43;;;;;;;23.63;12.80;;;;;;;11.67;100.00;100720.00;6220480;23;20459;-79
2022/10/21 03:59:10;;;;;;;14.10;12.43;;;;;;;11.64;100.00;100712.88;6220189;23;20466;-78
2022/10/21 04:01:36;;;;;;;17.60;12.60;;;;;;;11.62;100.00;100699.25;6220486;23;20053;-78
2022/10/21 04:04:03;;;;;;;16.83;12.23;;;;;;;11.62;100.00;100699.25;6220054;23;20075;-78
2022/10/21 04:06:29;;;;;;;17.45;12.18;;;;;;;11.61;100.00;100700.44;6220686;23;20443;-79
2022/10/21 04:08:56;;;;;;;20.58;12.02;;;;;;;11.56;100.00;100701.81;6219646;23;20040;-79
2022/10/21 04:11:22;;;;;;;15.88;12.32;;;;;;;11.54;100.00;100703.44;6220339;23;20468;-79
2022/10/21 04:13:49;;;;;;;16.50;13.10;;;;;;;11.52;100.00;100698.56;6220341;23;20080;-80
2022/10/21 04:16:19;;;;;;;19.25;13.13;;;;;;;11.50;100.00;100700.91;6220089;23;20474;-80
2022/10/21 04:18:46;;;;;;;17.50;11.88;;;;;;;11.48;100.00;100705.97;6220255;23;20407;-80
2022/10/21 04:21:13;;;;;;;20.80;12.40;;;;;;;11.47;100.00;100715.13;6193344;23;20776;-80
2022/10/21 04:23:39;;;;;;;17.13;12.73;;;;;;;11.43;100.00;100716.47;6193619;23;20040;-80
2022/10/21 04:26:06;;;;;;;21.70;11.80;;;;;;;11.35;100.00;100716.03;6219809;23;20088;-80
2022/10/21 04:28:33;;;;;;;12.82;11.45;;;;;;;11.29;100.00;100717.81;6220313;23;20067;-80
2022/10/21 04:31:00;;;;;;;20.70;12.45;;;;;;;11.25;100.00;100714.53;6219588;23;20100;-79
2022/10/21 04:33:27;;;;;;;15.10;12.25;;;;;;;11.23;100.00;100719.56;6220086;23;20738;-80
2022/10/21 04:35:54;;;;;;;14.50;11.90;;;;;;;11.20;100.00;100729.19;6192930;23;20053;-80
2022/10/21 04:38:21;;;;;;;15.32;12.05;;;;;;;11.18;100.00;100731.59;6219371;23;20144;-80
2022/10/21 04:40:59;;;;;;;21.60;12.02;;;;;;;11.17;100.00;100732.03;6219801;23;20156;-80
2022/10/21 04:43:26;;;;;;;18.02;11.48;;;;;;;11.12;100.00;100727.28;6219828;23;20088;-80
2022/10/21 04:45:53;;;;;;;16.65;11.75;;;;;;;11.07;100.00;100725.94;6219571;23;20398;-80
2022/10/21 04:48:20;;;;;;;16.45;11.38;;;;;;;11.10;100.00;100734.97;6219621;23;20017;-80
2022/10/21 04:50:51;;;;;;;18.08;10.77;;;;;;;11.07;100.00;100723.28;6219295;23;20025;-80
2022/10/21 04:53:18;;;;;;;14.30;10.88;;;;;;;11.03;100.00;100720.75;6220186;23;20100;-80
2022/10/21 04:55:44;;;;;;;17.17;11.27;;;;;;;10.98;100.00;100726.66;6220021;23;20017;-80
2022/10/21 04:58:10;;;;;;;13.27;11.52;;;;;;;10.95;100.00;100722.22;6220846;23;20013;-80
2022/10/21 05:00:37;;;;;;;19.48;10.85;;;;;;;10.86;100.00;100724.13;6220993;23;20041;-80
2022/10/21 05:03:03;;;;;;;20.80;11.32;;;;;;;10.83;100.00;100723.06;6220931;23;20013;-80
2022/10/21 05:05:30;;;;;;;14.98;11.15;;;;;;;10.81;100.00;100722.78;6220670;23;20018;-80
2022/10/21 05:07:56;;;;;;;17.23;11.60;;;;;;;10.81;100.00;100728.09;6220886;23;20335;-78
2022/10/21 05:10:24;;;;;;;15.75;11.48;;;;;;;10.82;100.00;100728.84;6221185;23;20093;-80
2022/10/21 05:12:50;;;;;;;19.40;11.25;;;;;;;10.80;100.00;100723.22;6194551;23;20088;-80
2022/10/21 05:15:17;;;;;;;18.27;11.48;;;;;;;10.74;100.00;100733.00;6221107;23;20396;-80
2022/10/21 05:17:44;;;;;;;13.68;10.15;;;;;;;10.71;100.00;100728.53;6221073;23;20049;-80
2022/10/21 05:20:10;;;;;;;19.65;11.23;;;;;;;10.67;100.00;100726.75;6220017;23;20047;-80
2022/10/21 05:22:36;;;;;;;14.35;10.60;;;;;;;10.63;100.00;100730.72;6221174;23;20021;-80
2022/10/21 05:25:04;;;;;;;15.05;10.70;;;;;;;10.57;100.00;100729.81;6220765;23;20020;-80
2022/10/21 05:27:30;;;;;;;17.98;11.07;;;;;;;10.56;100.00;100731.00;6220889;23;20029;-78
2022/10/21 05:29:57;;;;;;;16.73;8.93;;;;;;;10.55;100.00;100726.84;6220741;23;20017;-78
2022/10/21 05:32:23;;;;;;;13.05;9.70;;;;;;;10.53;100.00;100724.63;6221533;23;20096;-78
2022/10/21 05:34:50;;;;;;;15.15;9.55;;;;;;;10.50;100.00;100720.19;6220402;23;20048;-78
2022/10/21 05:37:16;;;;;;;13.55;9.35;;;;;;;10.47;100.00;100720.31;6220818;23;20021;-77
2022/10/21 05:39:43;;;;;;;14.23;9.65;;;;;;;10.47;100.00;100722.97;6220905;23;20021;-78
2022/10/21 05:42:09;;;;;;;11.40;9.35;;;;;;;10.44;100.00;100719.28;6220037;23;20021;-79
2022/10/21 05:44:36;;;;;;;13.88;9.05;;;;;;;10.42;100.00;100716.31;6221087;23;20013;-78
2022/10/21 05:47:03;;;;;;;15.85;8.77;;;;;;;10.41;100.00;100722.81;6221830;23;20048;-78
2022/10/21 05:49:29;;;;;;;16.23;8.55;;;;;;;10.42;100.00;100726.22;6194621;23;20056;-78
2022/10/21 05:51:56;;;;;;;17.63;8.70;;;;;;;10.42;100.00;100723.56;6220590;23;20060;-78
2022/10/21 05:54:22;;;;;;;11.85;8.85;;;;;;;10.42;100.00;100729.63;6220697;23;20041;-79
2022/10/21 05:56:49;;;;;;;16.58;8.82;;;;;;;10.45;100.00;100714.69;6220644;23;20020;-78
2022/10/21 05:59:15;;;;;;;9.23;8.10;;;;;;;10.44;100.00;100711.28;6220625;23;20024;-79
2022/10/21 06:01:42;;;;;;;15.48;9.45;;;;;;;10.43;100.00;100707.16;6221487;23;20101;-79
2022/10/21 06:04:08;;;;;;;12.68;8.35;;;;;;;10.44;100.00;100713.94;6221122;23;20092;-78
2022/10/21 06:06:34;;;;;;;11.18;8.82;;;;;;;10.43;100.00;100712.47;6221691;23;20041;-81
2022/10/21 06:09:01;;;;;;;12.65;7.72;;;;;;;10.44;100.00;100713.22;6194795;23;20021;-80
2022/10/21 06:11:27;;;;;;;17.60;7.82;;;;;;;10.41;100.00;100712.16;6221576;23;20049;-77
2022/10/21 06:13:54;;;;;;;10.70;8.27;;;;;;;10.40;100.00;100710.69;6221614;23;20028;-79
2022/10/21 06:16:20;;;;;;;14.35;7.97;;;;;;;10.39;100.00;100703.91;6221555;23;20024;-79
2022/10/21 06:18:47;;;;;;;12.98;8.00;;;;;;;10.32;100.00;100707.56;6221026;23;20060;-80
2022/10/21 06:21:13;;;;;;;12.98;7.93;;;;;;;10.31;100.00;100702.69;6221445;23;20016;-78
2022/10/21 06:23:40;;;;;;;15.95;7.85;;;;;;;10.25;100.00;100705.16;6221690;23;20040;-79
2022/10/21 06:26:12;;;;;;;12.10;6.88;;;;;;;10.24;100.00;100700.28;6221249;23;20096;-78
2022/10/21 06:28:40;;;;;;;12.32;7.85;;;;;;;10.22;100.00;100706.03;6221588;23;20742;-79
2022/10/21 06:31:11;;;;;;;8.02;7.20;;;;;;;10.22;100.00;100692.75;6221514;23;20089;-79
2022/10/21 06:33:37;;;;;;;13.05;7.80;;;;;;;10.24;100.00;100695.72;6221096;23;20447;-79
2022/10/21 06:36:04;;;;;;;11.75;8.02;;;;;;;10.27;100.00;100700.16;6221333;23;20023;-78
2022/10/21 06:38:32;;;;;;;8.35;7.57;;;;;;;10.29;100.00;100705.78;6221664;23;20060;-78
2022/10/21 06:41:05;;;;;;;9.50;7.65;;;;;;;10.33;100.00;100706.41;6194753;23;20461;-78
2022/10/21 06:43:37;;;;;;;12.07;7.60;;;;;;;10.34;100.00;100699.91;6221049;23;20347;-78
2022/10/21 06:46:06;;;;;;;9.95;7.75;;;;;;;10.34;100.00;100705.22;6221368;23;20422;-78
2022/10/21 06:48:33;;;;;;;8.20;7.40;;;;;;;10.38;100.00;100707.00;6220727;23;20021;-78
2022/10/21 06:51:03;;;;;;;8.57;7.30;;;;;;;10.39;100.00;100717.22;6221538;23;20048;-78
2022/10/21 06:53:30;;;;;;;14.73;7.20;;;;;;;10.40;100.00;100725.94;6221575;23;20092;-79
2022/10/21 06:56:03;;;;;;;9.90;7.28;;;;;;;10.38;100.00;100725.63;6221413;23;20425;-78
2022/10/21 06:58:30;;;;;;;13.38;6.88;;;;;;;10.37;100.00;100724.88;6221337;23;20473;-78
2022/10/21 07:00:57;;;;;;;9.43;7.05;;;;;;;10.40;100.00;100731.25;6221069;23;20044;-78
2022/10/21 07:03:24;;;;;;;12.27;6.85;;;;;;;10.43;100.00;100733.75;6221054;23;20017;-78
2022/10/21 07:05:58;;;;;;;9.63;7.00;;;;;;;10.46;100.00;100732.16;6221305;23;20044;-79
2022/10/21 07:08:28;;;;;;;14.23;7.88;;;;;;;10.47;100.00;100731.72;6221567;23;20021;-78
2022/10/21 07:11:13;;;;;;;10.73;8.05;;;;;;;10.50;100.00;100722.09;6221640;23;20188;-78
2022/10/21 07:13:40;;;;;;;9.88;8.10;;;;;;;10.54;100.00;100720.06;6195135;23;20037;-87
2022/10/21 07:16:15;;;;;;;10.13;7.55;;;;;;;10.56;100.00;100717.69;6220969;23;20017;-84
2022/10/21 07:18:42;;;;;;;10.07;7.43;;;;;;;10.60;100.00;100723.63;6221169;23;20025;-80
2022/10/21 07:21:13;;;;;;;11.18;7.70;;;;;;;10.65;100.00;100725.72;6221399;23;20013;-82
2022/10/21 07:23:39;;;;;;;13.50;8.07;;;;;;;10.71;100.00;100731.94;6221623;23;20041;-82
2022/10/21 07:26:07;;;;;;;14.55;8.25;;;;;;;10.74;100.00;100733.00;6221388;23;20378;-82
2022/10/21 07:28:34;;;;;;;15.55;8.13;;;;;;;10.78;100.00;100734.34;6221160;23;20047;-82
2022/10/21 07:31:03;;;;;;;11.90;9.45;;;;;;;10.82;100.00;100742.16;6194350;23;20099;-82
2022/10/21 07:33:30;;;;;;;12.25;8.68;;;;;;;10.88;100.00;100735.06;6221297;23;20038;-81
2022/10/21 07:36:12;;;;;;;15.40;8.65;;;;;;;10.95;100.00;100735.53;6221340;23;20079;-81
2022/10/21 07:38:40;;;;;;;;;;;;;;;11.01;100.00;100736.44;6221820;23;20109;-82
2022/10/21 07:41:06;;;;;;;8.93;7.85;;;;;;;11.07;100.00;100738.53;6221297;23;20373;-82
2022/10/21 07:43:32;;;;;;;13.18;8.85;;;;;;;11.12;100.00;100741.34;6220875;23;20104;-80
2022/10/21 07:45:59;;;;;;;12.63;8.95;;;;;;;11.19;100.00;100745.66;6220646;23;20100;-79
2022/10/21 07:48:31;;;;;;;11.77;8.98;;;;;;;11.27;100.00;100754.81;6221307;23;20071;-84
2022/10/21 07:51:10;;;;;;;17.05;9.68;;;;;;;11.35;100.00;100772.00;6221236;23;20097;-80
2022/10/21 07:53:38;;;;;;;13.75;9.80;;;;;;;11.44;100.00;100782.66;6221300;23;20083;-81
2022/10/21 07:56:15;;;;;;;12.43;9.07;;;;;;;11.51;100.00;100790.38;6194221;23;20088;-80
2022/10/21 07:58:43;;;;;;;19.85;11.60;;;;;;;11.59;100.00;100788.91;6221201;23;20025;-80
2022/10/21 08:01:10;;;;;;;10.80;9.70;;;;;;;11.66;100.00;100785.19;6220518;23;20085;-79
2022/10/21 08:03:37;;;;;;;15.13;10.70;;;;;;;11.74;100.00;100785.63;6221404;23;20059;-79
2022/10/21 08:06:05;;;;;;;19.20;10.25;;;;;;;11.79;100.00;100785.06;6220447;23;20097;-80
2022/10/21 08:08:32;;;;;;;18.20;10.18;;;;;;;11.84;100.00;100779.13;6219774;23;20053;-79
2022/10/21 08:10:59;;;;;;;15.98;9.57;;;;;;;11.91;100.00;100787.56;6220941;23;20017;-79
2022/10/21 08:13:26;;;;;;;13.98;9.38;;;;;;;11.96;100.00;100786.22;6194211;23;20481;-79
2022/10/21 08:15:53;;;;;;;13.50;9.15;;;;;;;12.00;100.00;100776.13;6220592;23;20033;-81
2022/10/21 08:18:20;;;;;;;11.68;8.65;;;;;;;12.05;100.00;100777.44;6192988;23;20053;-80
2022/10/21 08:20:47;;;;;;;15.50;9.25;;;;;;;12.09;100.00;100781.44;6220525;23;20056;-80
2022/10/21 08:23:16;;;;;;;11.80;8.50;;;;;;;12.14;100.00;100782.75;6221170;23;20049;-80
2022/10/21 08:25:55;;;;;;;13.18;8.57;;;;;;;12.18;100.00;100776.09;6220984;23;20017;-81
2022/10/21 08:28:24;;;;;;;8.80;7.78;;;;;;;12.22;100.00;100778.59;6220519;23;20088;-80
2022/10/21 08:30:51;;;;;;;16.27;9.45;;;;;;;12.26;100.00;100773.84;6219686;23;20100;-79
2022/10/21 08:33:17;;;;;;;11.98;8.93;;;;;;;12.28;100.00;100772.22;6220942;23;20530;-79
2022/10/21 08:35:44;;;;;;;10.15;8.25;;;;;;;12.30;100.00;100761.81;6220982;23;20092;-80
2022/10/21 08:38:11;;;;;;;9.80;8.20;;;;;;;12.33;100.00;100758.25;6221204;23;20024;-79
2022/10/21 08:40:44;;;;;;;11.18;8.80;;;;;;;12.37;100.00;100741.34;6220955;23;20044;-79
2022/10/21 08:43:22;;;;;;;10.52;8.43;;;;;;;12.39;100.00;100733.63;6220123;23;20522;-79
2022/10/21 08:45:57;;;;;;;14.73;8.95;;;;;;;12.42;100.00;100754.06;6220539;23;20088;-82
2022/10/21 08:48:52;;;;;;;11.60;8.23;;;;;;;12.43;100.00;100745.59;6220720;23;20055;-82
2022/10/21 08:51:32;;;;;;;10.82;7.95;;;;;;;12.45;100.00;100745.13;6219774;23;20017;-82
2022/10/21 08:54:23;;;;;;;12.80;8.43;;;;;;;12.47;100.00;100743.50;6194024;23;20013;-83
2022/10/21 08:56:54;;;;;;;14.80;8.63;;;;;;;12.49;100.00;100751.81;6220696;23;20435;-79
2022/10/21 08:59:22;;;;;;;10.30;8.40;;;;;;;12.51;100.00;100754.75;6220064;23;20049;-81
2022/10/21 09:01:49;;;;;;;12.25;8.68;;;;;;;12.54;100.00;100759.19;6219805;23;20268;-82
2022/10/21 09:04:33;;;;;;;14.88;8.15;;;;;;;12.59;100.00;100752.50;6220548;23;20049;-81
2022/10/21 09:07:23;;;;;;;16.40;8.77;;;;;;;12.64;100.00;100755.31;6194231;23;20041;-82
2022/10/21 09:09:59;;;;;;;10.18;8.25;;;;;;;12.69;100.00;100777.97;6169047;23;20441;-79
2022/10/21 09:12:53;;;;;;;12.85;8.80;;;;;;;12.74;100.00;100776.63;6219991;23;20068;-80
2022/10/21 09:15:34;;;;;;;16.17;8.82;;;;;;;12.80;100.00;100785.47;6220688;23;20092;-78
2022/10/21 09:18:13;;;;;;;16.95;8.77;;;;;;;12.85;100.00;100780.25;6219528;23;20068;-78
2022/10/21 09:20:51;;;;;;;12.75;8.82;;;;;;;12.92;100.00;100773.84;6219629;23;20076;-84
2022/10/21 09:23:36;;;;;;;12.40;7.88;;;;;;;12.96;100.00;100766.41;6220015;23;20354;-80
2022/10/21 09:26:17;;;;;;;17.15;8.38;;;;;;;13.02;100.00;100768.00;6219801;23;20044;-79
2022/10/21 09:28:45;;;;;;;12.10;8.05;;;;;;;13.08;100.00;100772.72;6219476;23;20084;-80
2022/10/21 09:31:17;;;;;;;11.40;8.73;;;;;;;13.15;100.00;100780.41;6219724;23;20519;-80
2022/10/21 09:33:48;;;;;;;12.18;8.15;;;;;;;13.20;100.00;100779.78;6218934;23;20020;-80
2022/10/21 09:36:24;;;;;;;9.57;7.97;;;;;;;13.25;100.00;100781.81;6219548;23;20097;-79
2022/10/21 09:38:56;;;;;;;12.45;8.07;;;;;;;13.28;100.00;100780.91;6219295;23;20428;-80
2022/10/21 09:41:28;;;;;;;12.63;8.00;;;;;;;13.31;100.00;100796.78;6218995;23;20092;-80
2022/10/21 09:43:55;;;;;;;14.23;8.43;;;;;;;13.34;100.00;100792.47;6224973;23;20093;-84
2022/10/21 09:46:21;;;;;;;11.05;7.82;;;;;;;13.39;100.00;100788.41;6222546;23;20084;-84
2022/10/21 09:48:54;;;;;;;17.17;7.97;;;;;;;13.42;100.00;100779.47;6169133;23;20574;-83
2022/10/21 09:51:41;;;;;;;14.18;7.35;;;;;;;13.46;100.00;100786.13;6217315;23;20026;-82
2022/10/21 09:54:15;;;;;;;11.88;7.65;;;;;;;13.52;100.00;100789.66;6219080;23;20013;-81
2022/10/21 09:56:59;;;;;;;13.43;8.15;;;;;;;13.58;100.00;100779.81;6218929;23;20093;-82
2022/10/21 09:59:25;;;;;;;13.60;7.78;;;;;;;13.61;100.00;100773.50;6220179;23;20040;-83
2022/10/21 10:02:06;;;;;;;9.80;7.20;;;;;;;13.68;100.00;100783.84;6221300;23;20176;-82
2022/10/21 10:04:34;;;;;;;14.20;7.20;;;;;;;13.71;100.00;100798.25;6219790;23;20020;-82
2022/10/21 10:07:16;;;;;;;14.00;6.78;;;;;;;13.75;100.00;100795.41;6221179;23;20056;-78
2022/10/21 10:09:45;;;;;;;11.63;7.50;;;;;;;13.79;100.00;100793.28;6220773;23;20037;-78
2022/10/21 10:12:14;;;;;;;9.90;7.10;;;;;;;13.84;100.00;100784.63;6221399;23;20097;-78
2022/10/21 10:14:45;;;;;;;9.55;7.30;;;;;;;13.90;100.00;100786.19;6220819;23;20101;-79
2022/10/21 10:17:32;;;;;;;7.72;6.90;;;;;;;13.97;100.00;100787.78;6220531;23;20454;-78
2022/10/21 10:20:04;;;;;;;11.85;7.03;;;;;;;14.02;100.00;100792.47;6222237;23;20017;-77
2022/10/21 10:23:02;;;;;;;14.77;7.10;;;;;;;14.06;100.00;100787.66;6221718;23;20025;-81
2022/10/21 10:25:38;;;;;;;12.50;6.85;;;;;;;14.11;100.00;100787.03;6221001;23;20152;-83
2022/10/21 10:28:07;;;;;;;11.07;6.78;;;;;;;14.13;100.00;100791.91;6221724;23;20037;-81
2022/10/21 10:30:37;;;;;;;15.23;7.03;;;;;;;14.12;100.00;100785.09;6221566;23;20024;-80
2022/10/21 10:33:09;;;;;;;9.88;6.32;;;;;;;14.15;100.00;100789.50;6222002;23;20123;-82
2022/10/21 10:35:37;;;;;;;9.18;6.57;;;;;;;14.16;100.00;100786.38;6221222;23;20021;-83
2022/10/21 10:38:04;;;;;;;14.85;6.88;;;;;;;14.19;100.00;100782.03;6221740;23;20044;-81
2022/10/21 10:40:38;;;;;;;11.05;6.97;;;;;;;14.23;100.00;100785.25;6220902;23;20116;-82
2022/10/21 10:43:11;;;;;;;8.50;6.88;;;;;;;14.28;100.00;100781.94;6221488;23;20076;-80
2022/10/21 10:45:46;;;;;;;10.45;6.20;;;;;;;14.32;100.00;100780.56;6221161;23;20478;-77
2022/10/21 10:48:21;;;;;;;10.50;6.70;;;;;;;14.36;100.00;100788.41;6221552;23;20044;-79
2022/10/21 10:50:49;;;;;;;15.38;6.57;;;;;;;14.43;100.00;100795.31;6221732;23;20048;-79
2022/10/21 10:53:27;;;;;;;10.25;5.55;;;;;;;14.48;100.00;100786.63;6220795;23;20197;-79
2022/10/21 10:56:05;;;;;;;11.68;5.88;;;;;;;14.53;100.00;100791.34;6221194;23;20036;-79
2022/10/21 10:58:35;;;;;;;8.40;5.85;;;;;;;14.59;100.00;100790.22;6221321;23;20036;-79
2022/10/21 11:01:09;;;;;;;12.18;5.82;;;;;;;14.63;100.00;100785.41;6221506;23;20516;-79
2022/10/21 11:03:46;;;;;;;7.82;5.57;;;;;;;14.69;100.00;100788.16;6221304;23;20056;-80
2022/10/21 11:06:15;;;;;;;7.97;5.63;;;;;;;14.73;100.00;100785.31;6221446;23;20414;-79
2022/10/21 11:08:51;;;;;;;9.35;5.68;;;;;;;14.74;100.00;100784.84;6220719;23;20052;-79
2022/10/21 11:11:39;;;;;;;7.97;5.53;;;;;;;14.79;100.00;100788.81;6221332;23;20013;-80
2022/10/21 11:14:13;;;;;;;8.10;4.80;;;;;;;14.81;100.00;100787.09;6221437;23;20025;-80
2022/10/21 11:17:10;;;;;;;12.40;4.95;;;;;;;14.85;100.00;100797.63;6221467;23;20013;-79
2022/10/21 11:19:52;;;;;;;13.45;4.90;;;;;;;14.87;100.00;100785.25;6221167;23;20013;-80
2022/10/21 11:22:26;;;;;;;5.53;4.28;;;;;;;14.91;100.00;100783.09;6220684;23;20500;-80